createdAt,value
2022-07-25T00:00:17.058Z,19.12
2022-07-25T00:02:50.731Z,19.13
2022-07-25T00:05:23.370Z,19.26
2022-07-25T00:07:56.394Z,19.31
2022-07-25T00:10:30.058Z,19.20
2022-07-25T00:13:02.656Z,18.93
2022-07-25T00:15:36.608Z,19.16
2022-07-25T00:18:09.353Z,19.09
2022-07-25T00:20:42.060Z,18.87
2022-07-25T00:23:14.749Z,18.97
2022-07-25T00:25:47.632Z,19.10
2022-07-25T00:28:20.536Z,18.98
2022-07-25T00:30:54.022Z,19.09
2022-07-25T00:33:26.681Z,19.17
2022-07-25T00:36:00.590Z,18.85
2022-07-25T00:38:33.183Z,18.69
2022-07-25T00:41:05.972Z,18.76
2022-07-25T00:43:42.457Z,18.72
2022-07-25T00:46:18.926Z,18.96
2022-07-25T00:48:54.969Z,19.02
2022-07-25T00:51:27.866Z,18.72
2022-07-25T00:54:01.068Z,18.78
2022-07-25T00:56:34.403Z,18.88
2022-07-25T00:59:07.790Z,18.81
2022-07-25T01:01:41.335Z,18.55
2022-07-25T01:04:15.804Z,18.64
2022-07-25T01:06:48.785Z,18.30
2022-07-25T01:09:22.295Z,18.48
2022-07-25T01:11:54.881Z,18.50
2022-07-25T01:14:27.558Z,18.62
2022-07-25T01:17:00.385Z,18.32
2022-07-25T01:19:32.903Z,18.00
2022-07-25T01:22:05.909Z,18.48
2022-07-25T01:24:39.241Z,18.19
2022-07-25T01:27:17.470Z,18.29
2022-07-25T01:29:50.319Z,18.38
2022-07-25T01:32:23.152Z,18.21
2022-07-25T01:34:55.919Z,18.64
2022-07-25T01:37:28.608Z,18.37
2022-07-25T01:40:01.498Z,18.50
2022-07-25T01:42:34.521Z,18.17
2022-07-25T01:45:07.696Z,18.62
2022-07-25T01:47:41.103Z,18.63
2022-07-25T01:50:13.801Z,18.93
2022-07-25T01:52:46.627Z,18.81
2022-07-25T01:55:19.406Z,18.50
2022-07-25T01:57:52.036Z,18.75
2022-07-25T02:00:28.947Z,18.58
2022-07-25T02:03:20.308Z,18.67
2022-07-25T02:05:53.085Z,18.63
2022-07-25T02:08:26.039Z,18.51
2022-07-25T02:10:59.568Z,18.86
2022-07-25T02:13:35.778Z,18.78
2022-07-25T02:16:08.553Z,18.83
2022-07-25T02:18:41.134Z,18.88
2022-07-25T02:21:14.563Z,18.91
2022-07-25T02:23:47.771Z,18.80
2022-07-25T02:26:20.799Z,18.96
2022-07-25T02:28:55.057Z,18.57
2022-07-25T02:31:27.958Z,19.10
2022-07-25T02:34:00.815Z,18.82
2022-07-25T02:36:33.527Z,19.05
2022-07-25T02:39:06.934Z,19.06
2022-07-25T02:41:39.564Z,18.57
2022-07-25T02:44:12.558Z,19.19
2022-07-25T02:46:45.158Z,18.94
2022-07-25T02:49:19.428Z,19.24
2022-07-25T02:51:52.163Z,19.09
2022-07-25T02:54:25.076Z,19.06
2022-07-25T02:56:58.115Z,19.20
2022-07-25T02:59:32.259Z,19.14
2022-07-25T03:02:05.109Z,19.11
2022-07-25T03:04:37.888Z,19.05
2022-07-25T03:07:14.192Z,19.07
2022-07-25T03:09:46.761Z,19.14
2022-07-25T03:12:19.630Z,19.07
2022-07-25T03:14:52.321Z,19.19
2022-07-25T03:17:25.198Z,19.36
2022-07-25T03:19:58.210Z,19.02
2022-07-25T03:22:30.884Z,19.04
2022-07-25T03:25:04.500Z,19.24
2022-07-25T03:27:37.351Z,19.25
2022-07-25T03:30:12.235Z,19.01
2022-07-25T03:32:44.769Z,19.32
2022-07-25T03:35:18.505Z,18.97
2022-07-25T03:37:51.363Z,19.24
2022-07-25T03:40:23.954Z,19.24
2022-07-25T03:42:56.415Z,19.10
2022-07-25T03:45:29.446Z,19.17
2022-07-25T03:48:02.576Z,19.34
2022-07-25T03:50:35.656Z,19.32
2022-07-25T03:53:10.281Z,19.34
2022-07-25T03:55:43.030Z,19.16
2022-07-25T03:58:16.996Z,19.29
2022-07-25T04:00:49.796Z,19.25
2022-07-25T04:03:22.509Z,18.89
2022-07-25T04:05:54.982Z,19.14
2022-07-25T04:08:27.826Z,19.08
2022-07-25T04:11:00.518Z,19.21
2022-07-25T04:13:33.277Z,19.40
2022-07-25T04:16:08.410Z,19.29
2022-07-25T04:18:43.171Z,19.51
2022-07-25T04:21:17.068Z,19.51
2022-07-25T04:23:49.877Z,19.52
2022-07-25T04:26:22.778Z,19.75
2022-07-25T04:28:59.099Z,19.73
2022-07-25T04:31:32.069Z,19.71
2022-07-25T04:34:04.952Z,19.87
2022-07-25T04:36:37.673Z,20.02
2022-07-25T04:39:10.657Z,19.83
2022-07-25T04:41:43.625Z,19.75
2022-07-25T04:44:16.151Z,19.89
2022-07-25T04:46:48.638Z,20.04
2022-07-25T04:49:21.198Z,20.29
2022-07-25T04:51:53.688Z,20.32
2022-07-25T04:54:26.252Z,20.20
2022-07-25T04:56:59.119Z,20.57
2022-07-25T04:59:31.733Z,20.60
2022-07-25T05:02:04.645Z,20.73
2022-07-25T05:04:45.045Z,20.78
2022-07-25T05:07:18.198Z,20.65
2022-07-25T05:09:50.822Z,20.99
2022-07-25T05:12:23.316Z,20.93
2022-07-25T05:14:55.805Z,21.21
2022-07-25T05:17:28.588Z,21.38
2022-07-25T05:20:01.232Z,21.18
2022-07-25T05:22:34.033Z,21.64
2022-07-25T05:25:07.765Z,21.79
2022-07-25T05:27:41.133Z,21.67
2022-07-25T05:30:14.874Z,21.60
2022-07-25T05:32:47.685Z,21.87
2022-07-25T05:35:21.247Z,22.13
2022-07-25T05:37:54.138Z,22.04
2022-07-25T05:40:26.990Z,22.16
2022-07-25T05:43:02.899Z,21.90
2022-07-25T05:45:35.889Z,22.15
2022-07-25T05:48:08.582Z,22.44
2022-07-25T05:50:46.513Z,22.13
2022-07-25T05:53:19.261Z,22.08
2022-07-25T05:55:52.548Z,22.38
2022-07-25T05:58:29.688Z,22.38
2022-07-25T06:01:04.486Z,22.40
2022-07-25T06:03:37.203Z,22.37
2022-07-25T06:06:13.739Z,22.10
2022-07-25T06:08:46.351Z,22.19
2022-07-25T06:11:20.468Z,22.09
2022-07-25T06:13:54.278Z,22.43
2022-07-25T06:16:27.160Z,22.46
2022-07-25T06:19:02.684Z,22.20
2022-07-25T06:21:35.604Z,22.06
2022-07-25T06:24:09.728Z,22.16
2022-07-25T06:26:42.984Z,22.25
2022-07-25T06:29:15.503Z,22.48
2022-07-25T06:31:48.177Z,22.47
2022-07-25T06:34:21.000Z,22.21
2022-07-25T06:36:53.776Z,22.08
2022-07-25T06:39:29.149Z,22.29
2022-07-25T06:42:04.016Z,22.66
2022-07-25T06:44:36.528Z,22.52
2022-07-25T06:47:12.996Z,22.81
2022-07-25T06:49:45.848Z,22.48
2022-07-25T06:52:18.589Z,22.40
2022-07-25T06:54:51.481Z,22.20
2022-07-25T06:57:24.078Z,22.34
2022-07-25T06:59:56.604Z,22.45
2022-07-25T07:02:29.010Z,22.26
2022-07-25T07:05:03.910Z,21.93
2022-07-25T07:07:36.717Z,22.15
2022-07-25T07:10:10.583Z,22.17
2022-07-25T07:12:43.144Z,22.05
2022-07-25T07:15:16.275Z,22.21
2022-07-25T07:17:49.045Z,22.04
2022-07-25T07:20:21.918Z,21.93
2022-07-25T07:22:54.544Z,22.29
2022-07-25T07:25:28.486Z,22.40
2022-07-25T07:28:02.661Z,23.04
2022-07-25T07:31:05.766Z,23.38
2022-07-25T07:33:28.482Z,23.91
2022-07-25T07:36:02.112Z,24.04
2022-07-25T07:38:34.805Z,23.56
2022-07-25T07:41:08.099Z,22.92
2022-07-25T07:43:41.310Z,23.01
2022-07-25T07:46:14.091Z,23.09
2022-07-25T07:48:47.156Z,23.09
2022-07-25T07:51:19.830Z,22.79
2022-07-25T07:54:11.690Z,22.92
2022-07-25T07:56:45.961Z,23.13
2022-07-25T07:59:18.458Z,23.55
2022-07-25T08:01:51.040Z,24.06
2022-07-25T08:04:23.715Z,24.10
2022-07-25T08:06:56.257Z,25.36
2022-07-25T08:09:33.352Z,26.15
2022-07-25T08:12:06.379Z,26.69
2022-07-25T08:14:38.914Z,26.29
2022-07-25T08:17:12.904Z,25.56
2022-07-25T08:19:45.581Z,24.54
2022-07-25T08:22:18.065Z,24.55
2022-07-25T08:24:50.589Z,25.52
2022-07-25T08:27:23.313Z,25.82
2022-07-25T08:29:55.905Z,25.43
2022-07-25T08:32:31.534Z,24.58
2022-07-25T08:35:08.164Z,24.37
2022-07-25T08:37:43.954Z,24.11
2022-07-25T08:40:23.149Z,24.05
2022-07-25T08:42:56.781Z,24.95
2022-07-25T08:45:30.494Z,25.83
2022-07-25T08:48:03.403Z,26.75
2022-07-25T08:50:36.766Z,27.17
2022-07-25T08:53:32.130Z,28.23
2022-07-25T08:56:11.230Z,28.79
2022-07-25T08:58:46.418Z,28.82
2022-07-25T09:01:19.183Z,26.68
2022-07-25T09:03:52.138Z,25.53
2022-07-25T09:06:27.305Z,25.57
2022-07-25T09:09:01.392Z,26.23
2022-07-25T09:11:50.628Z,26.99
2022-07-25T09:14:30.578Z,28.12
2022-07-25T09:17:21.831Z,28.19
2022-07-25T09:19:57.236Z,27.67
2022-07-25T09:22:30.538Z,27.90
2022-07-25T09:25:03.559Z,27.06
2022-07-25T09:27:36.104Z,26.31
2022-07-25T09:30:16.539Z,27.22
2022-07-25T09:33:03.950Z,26.99
2022-07-25T09:35:41.384Z,27.97
2022-07-25T09:38:18.724Z,26.50
2022-07-25T09:41:02.931Z,26.60
2022-07-25T09:43:44.720Z,26.31
2022-07-25T09:46:17.402Z,25.44
2022-07-25T09:48:58.522Z,26.10
2022-07-25T09:51:32.924Z,26.91
2022-07-25T09:54:06.061Z,27.74
2022-07-25T09:56:38.773Z,26.84
2022-07-25T09:59:11.483Z,26.61
2022-07-25T10:02:15.741Z,26.15
2022-07-25T10:04:57.617Z,26.59
2022-07-25T10:07:31.815Z,26.46
2022-07-25T10:10:08.673Z,27.12
2022-07-25T10:12:43.781Z,27.73
2022-07-25T10:15:16.798Z,27.42
2022-07-25T10:17:52.289Z,27.28
2022-07-25T10:20:30.486Z,27.33
2022-07-25T10:23:04.670Z,28.64
2022-07-25T10:25:37.331Z,28.73
2022-07-25T10:28:20.352Z,29.20
2022-07-25T10:30:58.673Z,29.23
2022-07-25T10:33:41.638Z,29.66
2022-07-25T10:36:14.620Z,29.33
2022-07-25T10:39:05.773Z,28.74
2022-07-25T10:41:49.305Z,27.88
2022-07-25T10:44:22.194Z,28.54
2022-07-25T10:47:13.728Z,28.16
2022-07-25T10:50:13.914Z,27.40
2022-07-25T10:52:42.653Z,27.28
2022-07-25T10:55:30.650Z,26.70
2022-07-25T10:58:17.662Z,27.69
2022-07-25T11:00:51.567Z,28.58
2022-07-25T11:03:24.464Z,28.37
2022-07-25T11:05:57.041Z,27.18
2022-07-25T11:08:43.931Z,26.40
2022-07-25T11:11:16.630Z,26.45
2022-07-25T11:13:50.342Z,26.96
2022-07-25T11:16:26.948Z,27.32
2022-07-25T11:19:02.075Z,28.05
2022-07-25T11:21:44.796Z,27.41
2022-07-25T11:24:17.800Z,27.04
2022-07-25T11:26:52.843Z,28.41
2022-07-25T11:29:28.928Z,28.14
2022-07-25T11:32:03.872Z,27.72
2022-07-25T11:34:50.419Z,27.03
2022-07-25T11:37:23.458Z,27.28
2022-07-25T11:39:56.595Z,27.13
2022-07-25T11:42:40.837Z,27.51
2022-07-25T11:45:24.808Z,26.64
2022-07-25T11:48:08.437Z,26.61
2022-07-25T11:50:45.482Z,26.13
2022-07-25T11:53:19.909Z,27.06
2022-07-25T11:55:58.526Z,27.87
2022-07-25T11:58:31.538Z,26.73
2022-07-25T12:01:12.455Z,26.46
2022-07-25T12:03:47.385Z,26.24
2022-07-25T12:06:20.033Z,26.47
2022-07-25T12:08:52.671Z,27.13
2022-07-25T12:11:25.649Z,27.16
2022-07-25T12:14:04.619Z,26.66
2022-07-25T12:16:37.698Z,26.03
2022-07-25T12:19:19.174Z,26.01
2022-07-25T12:21:52.125Z,26.04
2022-07-25T12:24:24.591Z,25.35
2022-07-25T12:26:57.227Z,25.27
2022-07-25T12:29:30.875Z,26.08
2022-07-25T12:32:03.518Z,25.66
2022-07-25T12:34:36.191Z,25.32
2022-07-25T12:37:08.848Z,25.29
2022-07-25T12:39:41.826Z,25.01
2022-07-25T12:42:16.718Z,24.56
2022-07-25T12:44:49.381Z,24.67
2022-07-25T12:47:25.906Z,24.64
2022-07-25T12:49:58.550Z,24.56
2022-07-25T12:52:31.618Z,24.16
2022-07-25T12:55:06.299Z,23.74
2022-07-25T12:57:42.266Z,23.38
2022-07-25T13:00:17.915Z,23.18
2022-07-25T13:02:52.071Z,22.90
2022-07-25T13:05:29.080Z,22.78
2022-07-25T13:08:04.738Z,22.66
2022-07-25T13:10:38.625Z,23.02
2022-07-25T13:13:11.127Z,22.75
2022-07-25T13:15:44.057Z,23.12
2022-07-25T13:18:17.813Z,22.91
2022-07-25T13:20:50.299Z,23.43
2022-07-25T13:23:22.863Z,24.51
2022-07-25T13:25:55.588Z,24.71
2022-07-25T13:28:28.595Z,24.90
2022-07-25T13:31:06.983Z,25.59
2022-07-25T13:33:39.806Z,25.93
2022-07-25T13:36:13.602Z,26.33
2022-07-25T13:38:47.002Z,26.09
2022-07-25T13:41:19.571Z,25.15
2022-07-25T13:43:54.487Z,26.51
2022-07-25T13:46:27.002Z,27.86
2022-07-25T13:48:59.885Z,27.93
2022-07-25T13:51:32.604Z,27.79
2022-07-25T13:54:05.136Z,26.71
2022-07-25T13:56:38.425Z,25.48
2022-07-25T13:59:14.522Z,24.79
2022-07-25T14:01:50.806Z,25.28
2022-07-25T14:04:23.377Z,25.62
2022-07-25T14:06:56.198Z,26.42
2022-07-25T14:09:29.212Z,25.83
2022-07-25T14:12:01.828Z,26.29
2022-07-25T14:14:34.588Z,26.67
2022-07-25T14:17:12.380Z,26.95
2022-07-25T14:19:45.259Z,25.93
2022-07-25T14:22:18.487Z,26.83
2022-07-25T14:24:58.639Z,26.43
2022-07-25T14:27:31.390Z,25.82
2022-07-25T14:30:07.892Z,25.58
2022-07-25T14:32:40.563Z,25.02
2022-07-25T14:35:15.633Z,25.04
2022-07-25T14:37:48.660Z,25.60
2022-07-25T14:40:22.383Z,25.52
2022-07-25T14:42:55.078Z,26.49
2022-07-25T14:45:27.757Z,25.28
2022-07-25T14:48:00.748Z,24.80
2022-07-25T14:50:33.309Z,24.45
2022-07-25T14:53:05.839Z,24.41
2022-07-25T14:55:41.473Z,24.00
2022-07-25T14:58:15.800Z,24.31
2022-07-25T15:00:48.579Z,25.54
2022-07-25T15:03:21.481Z,27.24
2022-07-25T15:05:53.990Z,26.93
2022-07-25T15:08:26.626Z,26.10
2022-07-25T15:11:01.648Z,26.29
2022-07-25T15:13:34.814Z,26.46
2022-07-25T15:16:07.680Z,26.28
2022-07-25T15:19:05.265Z,26.48
2022-07-25T15:21:35.767Z,26.15
2022-07-25T15:24:08.482Z,24.96
2022-07-25T15:26:41.436Z,25.77
2022-07-25T15:29:20.317Z,26.80
2022-07-25T15:31:52.829Z,27.65
2022-07-25T15:34:27.103Z,27.83
2022-07-25T15:36:59.864Z,27.16
2022-07-25T15:39:32.368Z,26.86
2022-07-25T15:42:04.945Z,26.09
2022-07-25T15:44:37.553Z,24.88
2022-07-25T15:47:13.176Z,25.10
2022-07-25T15:49:45.900Z,25.42
2022-07-25T15:52:18.619Z,25.65
2022-07-25T15:54:52.255Z,25.69
2022-07-25T15:57:25.151Z,26.48
2022-07-25T15:59:58.270Z,26.74
2022-07-25T16:02:30.775Z,26.13
2022-07-25T16:05:04.433Z,25.94
2022-07-25T16:07:37.019Z,25.42
2022-07-25T16:10:11.254Z,24.86
2022-07-25T16:12:44.132Z,24.41
2022-07-25T16:15:16.922Z,24.52
2022-07-25T16:17:50.706Z,24.33
2022-07-25T16:20:23.882Z,24.35
2022-07-25T16:22:57.819Z,24.52
2022-07-25T16:25:30.683Z,24.23
2022-07-25T16:28:03.583Z,24.00
2022-07-25T16:30:36.088Z,24.51
2022-07-25T16:33:08.680Z,24.70
2022-07-25T16:35:41.610Z,24.10
2022-07-25T16:38:14.241Z,24.08
2022-07-25T16:40:46.743Z,23.45
2022-07-25T16:43:19.315Z,23.53
2022-07-25T16:45:51.922Z,23.51
2022-07-25T16:48:25.295Z,23.33
2022-07-25T16:50:58.162Z,24.44
2022-07-25T16:53:32.686Z,24.36
2022-07-25T16:56:05.745Z,23.45
2022-07-25T16:58:38.865Z,23.36
2022-07-25T17:01:11.499Z,23.30
2022-07-25T17:03:44.277Z,23.19
2022-07-25T17:06:16.780Z,23.37
2022-07-25T17:08:49.460Z,23.98
2022-07-25T17:11:23.232Z,24.11
2022-07-25T17:13:55.978Z,23.82
2022-07-25T17:16:28.570Z,22.90
2022-07-25T17:19:02.802Z,22.47
2022-07-25T17:21:36.500Z,22.55
2022-07-25T17:24:10.732Z,22.78
2022-07-25T17:26:50.676Z,22.77
2022-07-25T17:29:23.288Z,22.82
2022-07-25T17:31:55.829Z,22.61
2022-07-25T17:34:28.772Z,22.52
2022-07-25T17:37:04.446Z,22.37
2022-07-25T17:39:37.552Z,22.46
2022-07-25T17:42:10.084Z,22.45
2022-07-25T17:44:42.575Z,22.59
2022-07-25T17:47:16.631Z,22.66
2022-07-25T17:49:49.753Z,22.48
2022-07-25T17:52:22.342Z,22.58
2022-07-25T17:54:55.528Z,22.63
2022-07-25T17:57:31.266Z,22.41
2022-07-25T18:00:06.002Z,22.23
2022-07-25T18:02:39.965Z,22.46
2022-07-25T18:05:13.580Z,22.46
2022-07-25T18:07:48.895Z,22.25
2022-07-25T18:10:22.489Z,22.29
2022-07-25T18:12:55.180Z,22.20
2022-07-25T18:15:28.956Z,21.89
2022-07-25T18:18:01.875Z,21.84
2022-07-25T18:20:34.513Z,21.59
2022-07-25T18:23:07.894Z,22.00
2022-07-25T18:25:41.080Z,21.78
2022-07-25T18:28:14.054Z,21.85
2022-07-25T18:30:46.591Z,21.61
2022-07-25T18:33:20.303Z,21.59
2022-07-25T18:35:53.009Z,21.58
2022-07-25T18:38:25.591Z,21.28
2022-07-25T18:41:26.293Z,21.41
2022-07-25T18:43:52.267Z,21.23
2022-07-25T18:46:25.057Z,20.88
2022-07-25T18:48:57.950Z,20.73
2022-07-25T18:51:30.688Z,20.53
2022-07-25T18:54:04.118Z,20.51
2022-07-25T18:56:37.056Z,20.87
2022-07-25T18:59:10.171Z,20.68
2022-07-25T19:01:44.738Z,20.81
2022-07-25T19:04:18.275Z,20.77
2022-07-25T19:06:50.913Z,20.35
2022-07-25T19:09:23.791Z,20.47
2022-07-25T19:11:56.786Z,20.47
2022-07-25T19:14:30.815Z,20.54
2022-07-25T19:17:04.004Z,20.57
2022-07-25T19:19:36.951Z,20.43
2022-07-25T19:22:09.620Z,20.16
2022-07-25T19:24:44.589Z,20.29
2022-07-25T19:27:17.357Z,20.22
2022-07-25T19:29:49.885Z,20.03
2022-07-25T19:32:22.888Z,20.24
2022-07-25T19:34:55.776Z,19.60
2022-07-25T19:37:28.787Z,19.53
2022-07-25T19:40:01.379Z,19.91
2022-07-25T19:42:34.918Z,19.82
2022-07-25T19:45:08.156Z,19.75
2022-07-25T19:47:40.674Z,19.94
2022-07-25T19:50:13.249Z,19.70
2022-07-25T19:52:46.300Z,19.72
2022-07-25T19:55:19.224Z,19.79
2022-07-25T19:57:51.793Z,19.57
2022-07-25T20:00:24.401Z,19.62
2022-07-25T20:02:57.089Z,19.62
2022-07-25T20:05:29.884Z,19.35
2022-07-25T20:08:02.442Z,19.44
2022-07-25T20:10:35.041Z,19.13
2022-07-25T20:13:11.649Z,19.25
2022-07-25T20:15:44.465Z,19.32
2022-07-25T20:18:19.733Z,19.19
2022-07-25T20:20:52.577Z,19.15
2022-07-25T20:23:28.330Z,19.06
2022-07-25T20:26:02.558Z,18.99
2022-07-25T20:28:35.181Z,19.27
2022-07-25T20:31:07.801Z,19.12
2022-07-25T20:33:41.272Z,18.99
2022-07-25T20:36:13.839Z,19.15
2022-07-25T20:38:46.428Z,19.11
2022-07-25T20:41:21.222Z,19.08
2022-07-25T20:43:53.961Z,19.15
2022-07-25T20:46:26.662Z,19.00
2022-07-25T20:49:01.756Z,19.09
2022-07-25T20:51:40.199Z,18.99
2022-07-25T20:54:17.739Z,18.92
2022-07-25T20:56:50.491Z,19.02
2022-07-25T20:59:24.895Z,19.21
2022-07-25T21:02:06.520Z,19.26
2022-07-25T21:04:39.173Z,18.88
2022-07-25T21:07:11.770Z,18.93
2022-07-25T21:09:45.312Z,19.26
2022-07-25T21:12:18.139Z,19.16
2022-07-25T21:14:51.130Z,19.17
2022-07-25T21:17:24.768Z,18.96
2022-07-25T21:19:57.354Z,18.77
2022-07-25T21:22:30.174Z,18.66
2022-07-25T21:25:02.988Z,18.81
2022-07-25T21:27:36.348Z,18.68
2022-07-25T21:30:11.665Z,18.70
2022-07-25T21:32:45.096Z,18.30
2022-07-25T21:35:18.159Z,18.60
2022-07-25T21:37:50.705Z,18.46
2022-07-25T21:40:23.608Z,18.40
2022-07-25T21:42:56.639Z,18.43
2022-07-25T21:45:31.747Z,18.28
2022-07-25T21:48:04.793Z,18.29
2022-07-25T21:50:42.269Z,18.25
2022-07-25T21:53:16.998Z,17.82
2022-07-25T21:55:49.494Z,17.73
2022-07-25T21:58:22.175Z,17.83
2022-07-25T22:00:55.963Z,18.05
2022-07-25T22:03:28.834Z,17.95
2022-07-25T22:06:01.352Z,17.77
2022-07-25T22:08:34.059Z,17.78
2022-07-25T22:11:15.736Z,17.93
2022-07-25T22:14:01.727Z,17.83
2022-07-25T22:16:34.831Z,18.03
2022-07-25T22:19:07.794Z,17.91
2022-07-25T22:21:42.271Z,17.92
2022-07-25T22:24:17.699Z,17.92
2022-07-25T22:26:50.306Z,17.36
2022-07-25T22:29:23.414Z,17.63
2022-07-25T22:32:14.160Z,17.87
2022-07-25T22:35:24.075Z,17.44
2022-07-25T22:38:32.499Z,17.55
2022-07-25T22:44:05.671Z,17.24
2022-07-25T22:46:39.636Z,17.61
2022-07-25T22:49:12.815Z,17.55
2022-07-25T22:51:51.394Z,17.43
2022-07-25T22:54:25.625Z,17.20
2022-07-25T22:56:58.216Z,17.25
2022-07-25T22:59:30.903Z,17.01
2022-07-25T23:02:03.652Z,17.26
2022-07-25T23:04:38.380Z,16.95
2022-07-25T23:07:11.177Z,17.30
2022-07-25T23:09:43.775Z,17.30
2022-07-25T23:12:16.412Z,17.12
2022-07-25T23:14:50.766Z,16.92
2022-07-25T23:17:24.802Z,17.14
2022-07-25T23:19:57.876Z,16.64
2022-07-25T23:22:30.605Z,16.78
2022-07-25T23:25:03.450Z,17.06
2022-07-25T23:27:36.816Z,16.77
2022-07-25T23:30:09.997Z,16.66
2022-07-25T23:33:07.057Z,16.41
2022-07-25T23:35:39.591Z,16.31
2022-07-25T23:38:12.665Z,16.54
2022-07-25T23:40:45.371Z,16.24
2022-07-25T23:43:31.899Z,16.51
2022-07-25T23:46:12.359Z,16.60
2022-07-25T23:48:44.949Z,16.58
2022-07-25T23:51:17.863Z,16.40
2022-07-25T23:53:50.921Z,16.48
2022-07-25T23:56:23.857Z,16.54
2022-07-25T23:58:57.135Z,16.22
